sensor_id;sensor_type;location;lat;lon;timestamp;pressure;altitude;pressure_sealevel;temperature;humidity
49583;BME280;36329;48.816;44.624;2024-03-02T00:01:26;102512;;;-0.7;83.9
49583;BME280;36329;48.816;44.624;2024-03-02T00:04:28;102514;;;-0.7;85
49583;BME280;36329;48.816;44.624;2024-03-02T00:07:30;102518.01;;;-0.9;84.7
49583;BME280;36329;48.816;44.624;2024-03-02T00:10:36;102514;;;-1;85.9
49583;BME280;36329;48.816;44.624;2024-03-02T00:13:39;102516;;;-1;86.6
49583;BME280;36329;48.816;44.624;2024-03-02T00:16:42;102514;;;-1.1;86.7
49583;BME280;36329;48.816;44.624;2024-03-02T00:19:44;102512;;;-0.9;86.4
49583;BME280;36329;48.816;44.624;2024-03-02T00:22:46;102513;;;-1;87.1
49583;BME280;36329;48.816;44.624;2024-03-02T00:25:50;102504;;;-0.9;86.1
49583;BME280;36329;48.816;44.624;2024-03-02T00:28:54;102507.99;;;-0.8;85.3
49583;BME280;36329;48.816;44.624;2024-03-02T00:31:58;102511;;;-1.1;86.1
49583;BME280;36329;48.816;44.624;2024-03-02T00:35:00;102516;;;-1.1;87.5
49583;BME280;36329;48.816;44.624;2024-03-02T00:38:04;102513;;;-1.2;87.3
49583;BME280;36329;48.816;44.624;2024-03-02T00:41:07;102516;;;-1;87.6
49583;BME280;36329;48.816;44.624;2024-03-02T00:44:12;102516;;;-0.8;85.3
49583;BME280;36329;48.816;44.624;2024-03-02T00:47:14;102518.99;;;-0.8;83.9
49583;BME280;36329;48.816;44.624;2024-03-02T00:50:17;102514;;;-0.7;84.4
49583;BME280;36329;48.816;44.624;2024-03-02T00:53:23;102517.01;;;-0.5;83.1
49583;BME280;36329;48.816;44.624;2024-03-02T00:56:26;102515;;;-0.6;82.4
49583;BME280;36329;48.816;44.624;2024-03-02T00:59:29;102519.99;;;-0.6;83.3
49583;BME280;36329;48.816;44.624;2024-03-02T01:02:31;102518.01;;;-0.7;83.2
49583;BME280;36329;48.816;44.624;2024-03-02T01:05:33;102523;;;-0.6;82.9
49583;BME280;36329;48.816;44.624;2024-03-02T01:08:35;102523;;;-0.6;82.2
49583;BME280;36329;48.816;44.624;2024-03-02T01:11:37;102521;;;-0.8;82.9
49583;BME280;36329;48.816;44.624;2024-03-02T01:14:40;102526;;;-0.7;83.2
49583;BME280;36329;48.816;44.624;2024-03-02T01:17:42;102528;;;-0.6;82.2
49583;BME280;36329;48.816;44.624;2024-03-02T01:20:44;102532.99;;;-0.6;82
49583;BME280;36329;48.816;44.624;2024-03-02T01:23:46;102530.01;;;-0.6;81.9
49583;BME280;36329;48.816;44.624;2024-03-02T01:26:49;102531.01;;;-0.5;81.9
49583;BME280;36329;48.816;44.624;2024-03-02T01:29:51;102523;;;-0.5;80.9
49583;BME280;36329;48.816;44.624;2024-03-02T01:32:53;102522;;;-0.6;82.6
49583;BME280;36329;48.816;44.624;2024-03-02T01:35:55;102525;;;-0.7;82.4
49583;BME280;36329;48.816;44.624;2024-03-02T01:38:57;102527;;;-0.9;83.2
49583;BME280;36329;48.816;44.624;2024-03-02T01:41:59;102523;;;-1.1;84.4
49583;BME280;36329;48.816;44.624;2024-03-02T01:45:02;102528;;;-1.4;85.2
49583;BME280;36329;48.816;44.624;2024-03-02T01:48:06;102539;;;-1.6;86.7
49583;BME280;36329;48.816;44.624;2024-03-02T01:51:08;102525;;;-1.4;87.2
49583;BME280;36329;48.816;44.624;2024-03-02T01:54:10;102527;;;-1.3;85.8
49583;BME280;36329;48.816;44.624;2024-03-02T01:57:13;102525;;;-1.4;85.8
49583;BME280;36329;48.816;44.624;2024-03-02T02:00:16;102527;;;-1.5;86
49583;BME280;36329;48.816;44.624;2024-03-02T02:03:18;102530.01;;;-1.4;85.7
49583;BME280;36329;48.816;44.624;2024-03-02T02:06:20;102529;;;-1.4;84.4
49583;BME280;36329;48.816;44.624;2024-03-02T02:09:22;102532.99;;;-1.3;84.1
49583;BME280;36329;48.816;44.624;2024-03-02T02:12:25;102526;;;-1.4;83.8
49583;BME280;36329;48.816;44.624;2024-03-02T02:15:28;102519.99;;;-1.4;84.7
49583;BME280;36329;48.816;44.624;2024-03-02T02:18:31;102523;;;-1.3;83.5
49583;BME280;36329;48.816;44.624;2024-03-02T02:21:33;102522;;;-1.3;83
49583;BME280;36329;48.816;44.624;2024-03-02T02:24:35;102523;;;-1.4;83.2
49583;BME280;36329;48.816;44.624;2024-03-02T02:27:37;102523;;;-1.4;82.7
49583;BME280;36329;48.816;44.624;2024-03-02T02:30:40;102518.99;;;-1.6;82.7
49583;BME280;36329;48.816;44.624;2024-03-02T02:33:42;102519.99;;;-1.5;82.9
49583;BME280;36329;48.816;44.624;2024-03-02T02:36:45;102527;;;-1.6;83.1
49583;BME280;36329;48.816;44.624;2024-03-02T02:39:47;102534;;;-1.8;84.6
49583;BME280;36329;48.816;44.624;2024-03-02T02:42:49;102518.01;;;-1.6;83.3
49583;BME280;36329;48.816;44.624;2024-03-02T02:45:51;102526;;;-1.7;83.4
49583;BME280;36329;48.816;44.624;2024-03-02T02:48:53;102529;;;-1.6;83.3
49583;BME280;36329;48.816;44.624;2024-03-02T02:51:55;102524;;;-1.9;83.2
49583;BME280;36329;48.816;44.624;2024-03-02T02:54:58;102513;;;-1.8;83.4
49583;BME280;36329;48.816;44.624;2024-03-02T02:58:01;102521;;;-1.9;83.1
49583;BME280;36329;48.816;44.624;2024-03-02T03:01:03;102527;;;-2.1;83.4
49583;BME280;36329;48.816;44.624;2024-03-02T03:04:05;102528;;;-2.2;85.3
49583;BME280;36329;48.816;44.624;2024-03-02T03:07:07;102529;;;-2.2;84.3
49583;BME280;36329;48.816;44.624;2024-03-02T03:10:10;102531.01;;;-2.1;84
49583;BME280;36329;48.816;44.624;2024-03-02T03:13:13;102531.01;;;-2;82.8
49583;BME280;36329;48.816;44.624;2024-03-02T03:16:15;102531.99;;;-2.2;82.7
49583;BME280;36329;48.816;44.624;2024-03-02T03:19:17;102534;;;-2.1;83.1
49583;BME280;36329;48.816;44.624;2024-03-02T03:22:19;102531.01;;;-2.1;82.5
49583;BME280;36329;48.816;44.624;2024-03-02T03:25:21;102530.01;;;-2;82.3
49583;BME280;36329;48.816;44.624;2024-03-02T03:28:24;102535;;;-2;83.1
49583;BME280;36329;48.816;44.624;2024-03-02T03:31:26;102531.01;;;-1.7;81.7
49583;BME280;36329;48.816;44.624;2024-03-02T03:34:28;102528;;;-1.6;81.5
49583;BME280;36329;48.816;44.624;2024-03-02T03:37:30;102531.01;;;-1.3;80.2
49583;BME280;36329;48.816;44.624;2024-03-02T03:40:32;102531.99;;;-1.3;78.6
49583;BME280;36329;48.816;44.624;2024-03-02T03:43:35;102529;;;-1.5;79.2
49583;BME280;36329;48.816;44.624;2024-03-02T03:46:37;102530.01;;;-1.8;80.4
49583;BME280;36329;48.816;44.624;2024-03-02T03:49:40;102532.99;;;-1.6;81.2
49583;BME280;36329;48.816;44.624;2024-03-02T03:52:42;102530.01;;;-1.7;81.3
49583;BME280;36329;48.816;44.624;2024-03-02T03:55:44;102537;;;-1.8;82.1
49583;BME280;36329;48.816;44.624;2024-03-02T03:58:46;102532.99;;;-1.7;81.5
49583;BME280;36329;48.816;44.624;2024-03-02T04:01:49;102541;;;-1.8;81.7
49583;BME280;36329;48.816;44.624;2024-03-02T04:04:51;102537;;;-1.6;82.2
49583;BME280;36329;48.816;44.624;2024-03-02T04:07:53;102542.01;;;-1.8;82
49583;BME280;36329;48.816;44.624;2024-03-02T04:10:56;102544.99;;;-1.7;81.9
49583;BME280;36329;48.816;44.624;2024-03-02T04:13:58;102540;;;-1.9;83
49583;BME280;36329;48.816;44.624;2024-03-02T04:17:00;102543.99;;;-1.8;83
49583;BME280;36329;48.816;44.624;2024-03-02T04:20:03;102540;;;-1.8;82.1
49583;BME280;36329;48.816;44.624;2024-03-02T04:23:06;102544.99;;;-1.7;81.7
49583;BME280;36329;48.816;44.624;2024-03-02T04:26:08;102548;;;-1.7;80.7
49583;BME280;36329;48.816;44.624;2024-03-02T04:29:10;102544.99;;;-1.7;80.9
49583;BME280;36329;48.816;44.624;2024-03-02T04:32:12;102550;;;-1.6;79.9
49583;BME280;36329;48.816;44.624;2024-03-02T04:35:15;102549;;;-1.3;78.6
49583;BME280;36329;48.816;44.624;2024-03-02T04:38:17;102548;;;-1.4;77.2
49583;BME280;36329;48.816;44.624;2024-03-02T04:41:19;102544.99;;;-1.3;77.1
49583;BME280;36329;48.816;44.624;2024-03-02T04:44:22;102544.99;;;-1.3;76.6
49583;BME280;36329;48.816;44.624;2024-03-02T04:47:24;102550;;;-1.3;75.9
49583;BME280;36329;48.816;44.624;2024-03-02T04:50:26;102555.01;;;-1;75.4
49583;BME280;36329;48.816;44.624;2024-03-02T04:53:29;102544.99;;;-0.9;74.6
49583;BME280;36329;48.816;44.624;2024-03-02T04:56:31;102544.99;;;-1;73.9
49583;BME280;36329;48.816;44.624;2024-03-02T04:59:34;102551;;;-1.1;75.1
49583;BME280;36329;48.816;44.624;2024-03-02T05:02:36;102555.01;;;-1.2;74.8
49583;BME280;36329;48.816;44.624;2024-03-02T05:05:39;102551;;;-1;73.9
49583;BME280;36329;48.816;44.624;2024-03-02T05:08:42;102555.01;;;-1;73.8
49583;BME280;36329;48.816;44.624;2024-03-02T05:11:44;102552;;;-1.2;73.6
49583;BME280;36329;48.816;44.624;2024-03-02T05:14:46;102553;;;-1;72.7
49583;BME280;36329;48.816;44.624;2024-03-02T05:17:48;102557.99;;;-1;72.6
49583;BME280;36329;48.816;44.624;2024-03-02T05:20:51;102554;;;-0.9;71.8
49583;BME280;36329;48.816;44.624;2024-03-02T05:23:53;102559;;;-1;71.4
49583;BME280;36329;48.816;44.624;2024-03-02T05:26:55;102552;;;-0.9;71.5
49583;BME280;36329;48.816;44.624;2024-03-02T05:29:57;102557.99;;;-0.9;72.4
49583;BME280;36329;48.816;44.624;2024-03-02T05:32:59;102557.99;;;-0.8;70.7
49583;BME280;36329;48.816;44.624;2024-03-02T05:36:02;102556.01;;;-0.7;70.3
49583;BME280;36329;48.816;44.624;2024-03-02T05:39:04;102556.01;;;-0.7;69.9
49583;BME280;36329;48.816;44.624;2024-03-02T05:42:06;102557.99;;;-0.9;69.9
49583;BME280;36329;48.816;44.624;2024-03-02T05:45:08;102554;;;-0.7;69.8
49583;BME280;36329;48.816;44.624;2024-03-02T05:48:10;102555.01;;;-0.3;68.4
49583;BME280;36329;48.816;44.624;2024-03-02T05:51:13;102565;;;-0.2;66.9
49583;BME280;36329;48.816;44.624;2024-03-02T05:54:15;102560;;;0.1;66.4
49583;BME280;36329;48.816;44.624;2024-03-02T05:57:17;102560;;;0.2;65.3
49583;BME280;36329;48.816;44.624;2024-03-02T06:00:19;102568.99;;;0.3;65
49583;BME280;36329;48.816;44.624;2024-03-02T06:03:22;102568.01;;;0.9;63.2
49583;BME280;36329;48.816;44.624;2024-03-02T06:06:24;102567.01;;;1.6;60.4
49583;BME280;36329;48.816;44.624;2024-03-02T06:09:27;102573;;;1.6;58.9
49583;BME280;36329;48.816;44.624;2024-03-02T06:12:31;102574;;;1.5;59.8
49583;BME280;36329;48.816;44.624;2024-03-02T06:15:33;102581.01;;;1.7;59.2
49583;BME280;36329;48.816;44.624;2024-03-02T06:18:35;102582.99;;;1.7;58.1
49583;BME280;36329;48.816;44.624;2024-03-02T06:21:38;102575;;;1.3;59.3
49583;BME280;36329;48.816;44.624;2024-03-02T06:24:40;102571;;;0.9;61
49583;BME280;36329;48.816;44.624;2024-03-02T06:27:43;102578;;;0.7;63.5
49583;BME280;36329;48.816;44.624;2024-03-02T06:30:46;102580.01;;;1;62
49583;BME280;36329;48.816;44.624;2024-03-02T06:33:48;102579;;;0.9;63.7
49583;BME280;36329;48.816;44.624;2024-03-02T06:36:50;102574;;;1;61.4
49583;BME280;36329;48.816;44.624;2024-03-02T06:39:52;102581.01;;;1.3;61
49583;BME280;36329;48.816;44.624;2024-03-02T06:42:54;102581.99;;;1.6;60.5
49583;BME280;36329;48.816;44.624;2024-03-02T06:45:56;102593.99;;;2;59.7
49583;BME280;36329;48.816;44.624;2024-03-02T06:48:58;102581.99;;;2;58.3
49583;BME280;36329;48.816;44.624;2024-03-02T06:52:01;102582.99;;;1.7;59.4
49583;BME280;36329;48.816;44.624;2024-03-02T06:55:03;102584;;;1.5;61
49583;BME280;36329;48.816;44.624;2024-03-02T06:58:06;102586;;;2.2;60.6
49583;BME280;36329;48.816;44.624;2024-03-02T07:01:08;102584;;;2.7;57.9
49583;BME280;36329;48.816;44.624;2024-03-02T07:04:10;102585;;;3;57.9
49583;BME280;36329;48.816;44.624;2024-03-02T07:07:13;102581.99;;;3.1;56.7
49583;BME280;36329;48.816;44.624;2024-03-02T07:10:15;102581.01;;;3.3;56.4
49583;BME280;36329;48.816;44.624;2024-03-02T07:13:17;102579;;;3.3;55.9
49583;BME280;36329;48.816;44.624;2024-03-02T07:16:19;102580.01;;;3.2;56.1
49583;BME280;36329;48.816;44.624;2024-03-02T07:19:22;102578;;;3.2;56.3
49583;BME280;36329;48.816;44.624;2024-03-02T07:22:24;102574;;;3.6;55.6
49583;BME280;36329;48.816;44.624;2024-03-02T07:25:26;102576;;;3.7;55.5
49583;BME280;36329;48.816;44.624;2024-03-02T07:28:28;102575;;;4.2;54.8
49583;BME280;36329;48.816;44.624;2024-03-02T07:31:31;102580.01;;;4.2;54.8
49583;BME280;36329;48.816;44.624;2024-03-02T07:34:33;102578;;;5;52.3
49583;BME280;36329;48.816;44.624;2024-03-02T07:37:36;102571;;;5.6;50.6
49583;BME280;36329;48.816;44.624;2024-03-02T07:40:38;102574;;;5.8;50.1
49583;BME280;36329;48.816;44.624;2024-03-02T07:43:40;102574;;;6.1;49.8
49583;BME280;36329;48.816;44.624;2024-03-02T07:46:43;102577;;;6;49.2
49583;BME280;36329;48.816;44.624;2024-03-02T07:49:45;102574;;;6.2;49.2
49583;BME280;36329;48.816;44.624;2024-03-02T07:52:47;102575;;;6.9;48.8
49583;BME280;36329;48.816;44.624;2024-03-02T07:55:49;102572;;;7.3;48.2
49583;BME280;36329;48.816;44.624;2024-03-02T07:58:51;102561;;;7.6;46.7
49583;BME280;36329;48.816;44.624;2024-03-02T08:01:53;102565;;;7.8;45.6
49583;BME280;36329;48.816;44.624;2024-03-02T08:04:55;102568.99;;;7.9;46.1
49583;BME280;36329;48.816;44.624;2024-03-02T08:07:58;102565;;;8.4;45.8
49583;BME280;36329;48.816;44.624;2024-03-02T08:11:00;102561;;;8.8;44.6
49583;BME280;36329;48.816;44.624;2024-03-02T08:14:03;102560;;;9.2;43.9
49583;BME280;36329;48.816;44.624;2024-03-02T08:17:05;102556.99;;;9;44.6
49583;BME280;36329;48.816;44.624;2024-03-02T08:20:09;102562;;;8.7;43.9
49583;BME280;36329;48.816;44.624;2024-03-02T08:23:11;102557.99;;;8.9;43.9
49583;BME280;36329;48.816;44.624;2024-03-02T08:26:13;102553;;;9.3;44.3
49583;BME280;36329;48.816;44.624;2024-03-02T08:29:15;102550;;;8.8;44
49583;BME280;36329;48.816;44.624;2024-03-02T08:32:19;102543.99;;;9.1;45
49583;BME280;36329;48.816;44.624;2024-03-02T08:35:21;102542.01;;;8.8;45.5
49583;BME280;36329;48.816;44.624;2024-03-02T08:38:23;102544.99;;;9;44.1
49583;BME280;36329;48.816;44.624;2024-03-02T08:41:25;102540;;;9.2;45.5
49583;BME280;36329;48.816;44.624;2024-03-02T08:44:28;102539;;;9.1;44.8
49583;BME280;36329;48.816;44.624;2024-03-02T08:47:30;102535;;;9.6;43.9
49583;BME280;36329;48.816;44.624;2024-03-02T08:50:32;102535;;;9.9;43
49583;BME280;36329;48.816;44.624;2024-03-02T08:53:34;102531.99;;;9.8;43.8
49583;BME280;36329;48.816;44.624;2024-03-02T08:56:37;102529;;;10;42.7
49583;BME280;36329;48.816;44.624;2024-03-02T08:59:39;102530.01;;;9.8;43.5
49583;BME280;36329;48.816;44.624;2024-03-02T09:02:41;102525;;;10;43.1
49583;BME280;36329;48.816;44.624;2024-03-02T09:05:43;102510;;;9.6;44
49583;BME280;36329;48.816;44.624;2024-03-02T09:08:46;102514;;;9.4;44.5
49583;BME280;36329;48.816;44.624;2024-03-02T09:11:49;102512;;;9;46.2
49583;BME280;36329;48.816;44.624;2024-03-02T09:14:51;102506.01;;;9.3;45.8
49583;BME280;36329;48.816;44.624;2024-03-02T09:17:53;102504;;;9.4;45.5
49583;BME280;36329;48.816;44.624;2024-03-02T09:20:55;102501;;;9.1;45.8
49583;BME280;36329;48.816;44.624;2024-03-02T09:23:57;102491;;;8.7;47.1
49583;BME280;36329;48.816;44.624;2024-03-02T09:27:00;102488;;;8.7;46.8
49583;BME280;36329;48.816;44.624;2024-03-02T09:30:02;102485;;;9.2;46.4
49583;BME280;36329;48.816;44.624;2024-03-02T09:33:06;102489;;;9.4;46.9
49583;BME280;36329;48.816;44.624;2024-03-02T09:36:17;102485;;;9.7;46.2
49583;BME280;36329;48.816;44.624;2024-03-02T09:39:20;102486;;;9.8;46
49583;BME280;36329;48.816;44.624;2024-03-02T09:42:22;102488;;;10;45.1
49583;BME280;36329;48.816;44.624;2024-03-02T09:45:25;102481.01;;;10.3;44.8
49583;BME280;36329;48.816;44.624;2024-03-02T09:48:27;102480.01;;;10.5;44.5
49583;BME280;36329;48.816;44.624;2024-03-02T09:51:29;102469.99;;;10.3;44.7
49583;BME280;36329;48.816;44.624;2024-03-02T09:54:32;102463;;;10.6;44
49583;BME280;36329;48.816;44.624;2024-03-02T09:57:34;102461;;;9.7;46.4
49583;BME280;36329;48.816;44.624;2024-03-02T10:00:36;102460;;;10;45.7
49583;BME280;36329;48.816;44.624;2024-03-02T10:03:39;102454;;;10.5;45.1
49583;BME280;36329;48.816;44.624;2024-03-02T10:06:41;102457.99;;;10.6;44.7
49583;BME280;36329;48.816;44.624;2024-03-02T10:09:44;102453;;;10.2;45.4
49583;BME280;36329;48.816;44.624;2024-03-02T10:12:47;102456.01;;;10.9;45.2
49583;BME280;36329;48.816;44.624;2024-03-02T10:15:49;102453;;;11.4;44
49583;BME280;36329;48.816;44.624;2024-03-02T10:18:51;102451;;;11.3;43.6
49583;BME280;36329;48.816;44.624;2024-03-02T10:21:54;102452;;;11.3;43.1
49583;BME280;36329;48.816;44.624;2024-03-02T10:24:56;102448;;;10.9;44
49583;BME280;36329;48.816;44.624;2024-03-02T10:27:59;102438;;;10.5;44.8
49583;BME280;36329;48.816;44.624;2024-03-02T10:31:01;102431.99;;;10.6;44.9
49583;BME280;36329;48.816;44.624;2024-03-02T10:34:04;102430.01;;;10.8;44.2
49583;BME280;36329;48.816;44.624;2024-03-02T10:37:07;102427;;;10.9;43.9
49583;BME280;36329;48.816;44.624;2024-03-02T10:40:11;102430.01;;;11.1;43.6
49583;BME280;36329;48.816;44.624;2024-03-02T10:43:14;102423;;;11.1;44
49583;BME280;36329;48.816;44.624;2024-03-02T10:46:17;102423;;;10.5;45
49583;BME280;36329;48.816;44.624;2024-03-02T10:49:22;102425;;;10.2;45.7
49583;BME280;36329;48.816;44.624;2024-03-02T10:52:25;102422;;;10.5;46
49583;BME280;36329;48.816;44.624;2024-03-02T10:55:27;102416;;;10.8;45.7
49583;BME280;36329;48.816;44.624;2024-03-02T10:58:32;102412;;;10.5;45.8
49583;BME280;36329;48.816;44.624;2024-03-02T11:01:35;102414;;;10.6;46.2
49583;BME280;36329;48.816;44.624;2024-03-02T11:04:41;102419.99;;;10.4;45.8
49583;BME280;36329;48.816;44.624;2024-03-02T11:07:44;102423;;;10.6;44
49583;BME280;36329;48.816;44.624;2024-03-02T11:10:50;102423;;;11.2;41.8
49583;BME280;36329;48.816;44.624;2024-03-02T11:13:56;102413;;;10.8;42.2
49583;BME280;36329;48.816;44.624;2024-03-02T11:17:00;102425;;;11.2;41.8
49583;BME280;36329;48.816;44.624;2024-03-02T11:20:04;102423;;;10.8;43.2
49583;BME280;36329;48.816;44.624;2024-03-02T11:23:07;102422;;;10.5;45.5
49583;BME280;36329;48.816;44.624;2024-03-02T11:26:17;102423;;;10.3;46.9
49583;BME280;36329;48.816;44.624;2024-03-02T11:32:54;102423;;;10.3;47.6
49583;BME280;36329;48.816;44.624;2024-03-02T11:35:57;102422;;;10;48.9
49583;BME280;36329;48.816;44.624;2024-03-02T11:39:00;102431.01;;;9.7;50
49583;BME280;36329;48.816;44.624;2024-03-02T11:42:02;102417.01;;;9.6;50.2
49583;BME280;36329;48.816;44.624;2024-03-02T11:45:08;102418.99;;;9.4;50.9
49583;BME280;36329;48.816;44.624;2024-03-02T11:48:14;102421;;;9.2;51.9
49583;BME280;36329;48.816;44.624;2024-03-02T11:51:16;102414;;;8.8;53.1
49583;BME280;36329;48.816;44.624;2024-03-02T11:54:19;102412;;;8.4;54.4
49583;BME280;36329;48.816;44.624;2024-03-02T11:57:22;102410;;;8.4;54.7
49583;BME280;36329;48.816;44.624;2024-03-02T12:00:24;102412;;;8.5;55.1
49583;BME280;36329;48.816;44.624;2024-03-02T12:03:26;102417.01;;;8.3;56.5
49583;BME280;36329;48.816;44.624;2024-03-02T12:06:29;102417.01;;;8.2;56.7
49583;BME280;36329;48.816;44.624;2024-03-02T12:09:31;102413;;;8;57.9
49583;BME280;36329;48.816;44.624;2024-03-02T12:12:33;102411;;;7.3;60.7
49583;BME280;36329;48.816;44.624;2024-03-02T12:15:37;102407.99;;;7.3;61.9
49583;BME280;36329;48.816;44.624;2024-03-02T12:18:41;102413;;;7.7;60.3
49583;BME280;36329;48.816;44.624;2024-03-02T12:21:43;102417.01;;;7.3;62
49583;BME280;36329;48.816;44.624;2024-03-02T12:24:45;102407.99;;;7.1;61.1
49583;BME280;36329;48.816;44.624;2024-03-02T12:27:49;102409;;;7;62.3
49583;BME280;36329;48.816;44.624;2024-03-02T12:30:52;102406.99;;;6.8;63.4
49583;BME280;36329;48.816;44.624;2024-03-02T12:33:54;102407.99;;;7.1;63
49583;BME280;36329;48.816;44.624;2024-03-02T12:36:56;102406.99;;;6.8;65.4
49583;BME280;36329;48.816;44.624;2024-03-02T12:39:59;102404;;;6.7;65.2
49583;BME280;36329;48.816;44.624;2024-03-02T12:43:01;102407.99;;;6.7;65.1
49583;BME280;36329;48.816;44.624;2024-03-02T12:46:03;102406.99;;;6.8;64.9
49583;BME280;36329;48.816;44.624;2024-03-02T12:49:09;102407.99;;;6.4;66.1
49583;BME280;36329;48.816;44.624;2024-03-02T12:52:12;102412;;;6.6;65.9
49583;BME280;36329;48.816;44.624;2024-03-02T12:55:14;102411;;;6.5;65.8
49583;BME280;36329;48.816;44.624;2024-03-02T12:58:18;102410;;;6.5;65.8
49583;BME280;36329;48.816;44.624;2024-03-02T13:01:21;102409;;;6.5;64.9
49583;BME280;36329;48.816;44.624;2024-03-02T13:04:23;102409;;;6.6;64.6
49583;BME280;36329;48.816;44.624;2024-03-02T13:07:26;102407.99;;;6.3;66
49583;BME280;36329;48.816;44.624;2024-03-02T13:10:28;102410;;;6.3;67.2
49583;BME280;36329;48.816;44.624;2024-03-02T13:13:31;102411;;;6.3;67.4
49583;BME280;36329;48.816;44.624;2024-03-02T13:16:38;102411;;;6.3;66.8
49583;BME280;36329;48.816;44.624;2024-03-02T13:19:50;102406.99;;;6.3;65.2
49583;BME280;36329;48.816;44.624;2024-03-02T13:22:53;102409;;;6.2;61.3
49583;BME280;36329;48.816;44.624;2024-03-02T13:25:55;102405.01;;;6.2;61.4
49583;BME280;36329;48.816;44.624;2024-03-02T13:28:57;102413;;;6.1;61.5
49583;BME280;36329;48.816;44.624;2024-03-02T13:31:59;102402;;;6.2;58.8
49583;BME280;36329;48.816;44.624;2024-03-02T13:35:02;102406.99;;;6.1;56
49583;BME280;36329;48.816;44.624;2024-03-02T13:38:06;102418.01;;;6;55.8
49583;BME280;36329;48.816;44.624;2024-03-02T13:41:08;102404;;;5.9;55.9
49583;BME280;36329;48.816;44.624;2024-03-02T13:44:11;102417.01;;;5.9;56.7
49583;BME280;36329;48.816;44.624;2024-03-02T13:47:14;102416;;;5.8;57.6
49583;BME280;36329;48.816;44.624;2024-03-02T13:50:16;102423;;;5.8;57.8
49583;BME280;36329;48.816;44.624;2024-03-02T13:53:18;102431.01;;;5.8;58.4
49583;BME280;36329;48.816;44.624;2024-03-02T13:56:20;102424;;;5.6;59.5
49583;BME280;36329;48.816;44.624;2024-03-02T13:59:22;102414;;;5.6;60
49583;BME280;36329;48.816;44.624;2024-03-02T14:02:25;102423;;;5.7;59.9
49583;BME280;36329;48.816;44.624;2024-03-02T14:05:27;102423;;;5.8;59.8
49583;BME280;36329;48.816;44.624;2024-03-02T14:08:29;102416;;;5.5;61.3
49583;BME280;36329;48.816;44.624;2024-03-02T14:11:31;102417.01;;;5.4;62.7
49583;BME280;36329;48.816;44.624;2024-03-02T14:14:33;102423;;;5.6;63
49583;BME280;36329;48.816;44.624;2024-03-02T14:17:35;102419.99;;;5.4;64.7
49583;BME280;36329;48.816;44.624;2024-03-02T14:20:37;102427;;;5.4;66.4
49583;BME280;36329;48.816;44.624;2024-03-02T14:23:40;102424;;;5.2;68.5
49583;BME280;36329;48.816;44.624;2024-03-02T14:26:42;102419.99;;;5.2;69.9
49583;BME280;36329;48.816;44.624;2024-03-02T14:29:44;102429;;;5.3;70.6
49583;BME280;36329;48.816;44.624;2024-03-02T14:32:46;102428;;;5;72.5
49583;BME280;36329;48.816;44.624;2024-03-02T14:35:49;102423;;;5;73.6
49583;BME280;36329;48.816;44.624;2024-03-02T14:38:51;102422;;;4.9;74.7
49583;BME280;36329;48.816;44.624;2024-03-02T14:41:53;102425;;;4.9;75.5
49583;BME280;36329;48.816;44.624;2024-03-02T14:44:55;102425;;;4.7;76.8
49583;BME280;36329;48.816;44.624;2024-03-02T14:47:57;102417.01;;;4.5;78.6
49583;BME280;36329;48.816;44.624;2024-03-02T14:51:00;102418.01;;;4.6;78.5
49583;BME280;36329;48.816;44.624;2024-03-02T14:54:03;102417.01;;;4.6;78.6
49583;BME280;36329;48.816;44.624;2024-03-02T14:57:05;102415;;;4.5;79.2
49583;BME280;36329;48.816;44.624;2024-03-02T15:00:07;102413;;;4.2;81.1
49583;BME280;36329;48.816;44.624;2024-03-02T15:03:10;102406.99;;;4;83.1
49583;BME280;36329;48.816;44.624;2024-03-02T15:06:12;102411;;;4.1;83.6
49583;BME280;36329;48.816;44.624;2024-03-02T15:09:15;102412;;;4.1;83.5
49583;BME280;36329;48.816;44.624;2024-03-02T15:12:17;102411;;;4.2;83.5
49583;BME280;36329;48.816;44.624;2024-03-02T15:15:19;102414;;;3.9;85.3
49583;BME280;36329;48.816;44.624;2024-03-02T15:18:21;102412;;;3.8;86
49583;BME280;36329;48.816;44.624;2024-03-02T15:21:24;102416;;;3.9;86.5
49583;BME280;36329;48.816;44.624;2024-03-02T15:24:26;102423;;;3.6;87.4
49583;BME280;36329;48.816;44.624;2024-03-02T15:27:29;102418.99;;;3.6;88.1
49583;BME280;36329;48.816;44.624;2024-03-02T15:30:31;102424;;;3.6;88.4
49583;BME280;36329;48.816;44.624;2024-03-02T15:33:33;102430.01;;;3.7;87.4
49583;BME280;36329;48.816;44.624;2024-03-02T15:36:36;102428;;;3.4;89.1
49583;BME280;36329;48.816;44.624;2024-03-02T15:39:39;102432.99;;;3.2;91.8
49583;BME280;36329;48.816;44.624;2024-03-02T15:42:41;102434;;;3.1;92.7
49583;BME280;36329;48.816;44.624;2024-03-02T15:45:43;102429;;;3.1;94.1
49583;BME280;36329;48.816;44.624;2024-03-02T15:48:45;102430.01;;;3.2;91.4
49583;BME280;36329;48.816;44.624;2024-03-02T15:51:47;102431.99;;;3.1;92.1
49583;BME280;36329;48.816;44.624;2024-03-02T15:54:49;102431.01;;;3;92.6
49583;BME280;36329;48.816;44.624;2024-03-02T15:57:52;102435;;;2.8;93.6
49583;BME280;36329;48.816;44.624;2024-03-02T16:00:54;102432.99;;;2.8;94.1
49583;BME280;36329;48.816;44.624;2024-03-02T16:03:57;102431.01;;;2.9;92.5
49583;BME280;36329;48.816;44.624;2024-03-02T16:06:59;102429;;;3;90.7
49583;BME280;36329;48.816;44.624;2024-03-02T16:10:01;102428;;;2.9;90.6
49583;BME280;36329;48.816;44.624;2024-03-02T16:13:05;102431.99;;;2.7;90.6
49583;BME280;36329;48.816;44.624;2024-03-02T16:16:07;102435;;;2.7;91.6
49583;BME280;36329;48.816;44.624;2024-03-02T16:19:09;102430.01;;;2.5;92
49583;BME280;36329;48.816;44.624;2024-03-02T16:22:11;102422;;;2.2;93.1
49583;BME280;36329;48.816;44.624;2024-03-02T16:25:13;102428;;;2.3;92.2
49583;BME280;36329;48.816;44.624;2024-03-02T16:28:16;102425;;;2.4;91.9
49583;BME280;36329;48.816;44.624;2024-03-02T16:31:18;102426;;;2.3;91.2
49583;BME280;36329;48.816;44.624;2024-03-02T16:34:21;102427;;;2;93.8
49583;BME280;36329;48.816;44.624;2024-03-02T16:37:23;102425;;;2;94.1
49583;BME280;36329;48.816;44.624;2024-03-02T16:40:25;102422;;;2;94.5
49583;BME280;36329;48.816;44.624;2024-03-02T16:43:28;102427;;;2.2;93.8
49583;BME280;36329;48.816;44.624;2024-03-02T16:46:30;102426;;;2.2;92
49583;BME280;36329;48.816;44.624;2024-03-02T16:49:32;102424;;;2.4;89.9